createdAt,value
2018-05-11T00:00:26.799Z,0.00
2018-05-11T00:01:26.798Z,0.00
2018-05-11T00:02:26.797Z,0.00
2018-05-11T00:03:26.794Z,0.00
2018-05-11T00:04:26.792Z,0.00
2018-05-11T00:05:26.790Z,0.00
2018-05-11T00:06:26.791Z,0.00
2018-05-11T00:07:26.788Z,0.00
2018-05-11T00:08:26.785Z,0.00
2018-05-11T00:09:26.785Z,0.00
2018-05-11T00:10:26.782Z,0.00
2018-05-11T00:11:26.781Z,0.00
2018-05-11T00:12:26.822Z,0.00
2018-05-11T00:13:26.778Z,0.00
2018-05-11T00:14:26.775Z,0.00
2018-05-11T00:15:26.774Z,0.00
2018-05-11T00:16:26.772Z,0.00
2018-05-11T00:17:26.778Z,0.00
2018-05-11T00:18:26.836Z,0.00
2018-05-11T00:19:26.767Z,0.00
2018-05-11T00:20:26.764Z,0.00
2018-05-11T00:21:26.762Z,0.00
2018-05-11T00:22:26.765Z,0.00
2018-05-11T00:23:26.776Z,0.00
2018-05-11T00:24:26.757Z,0.00
2018-05-11T00:25:26.760Z,0.00
2018-05-11T00:26:26.756Z,0.00
2018-05-11T00:27:26.754Z,0.00
2018-05-11T00:28:26.751Z,0.00
2018-05-11T00:29:26.750Z,0.00
2018-05-11T00:30:26.747Z,0.00
2018-05-11T00:31:26.746Z,0.00
2018-05-11T00:32:26.744Z,0.00
2018-05-11T00:33:26.742Z,0.00
2018-05-11T00:34:26.740Z,0.00
2018-05-11T00:35:26.738Z,0.00
2018-05-11T00:36:26.736Z,0.00
2018-05-11T00:37:26.735Z,0.00
2018-05-11T00:38:26.733Z,0.00
2018-05-11T00:39:26.732Z,0.00
2018-05-11T00:40:26.729Z,0.00
2018-05-11T00:41:26.729Z,0.00
2018-05-11T00:42:26.726Z,0.00
2018-05-11T00:43:26.725Z,0.00
2018-05-11T00:44:26.722Z,0.00
2018-05-11T00:45:26.720Z,0.00
2018-05-11T00:46:26.721Z,0.00
2018-05-11T00:47:26.717Z,0.00
2018-05-11T00:48:26.714Z,0.00
2018-05-11T00:49:26.712Z,0.00
2018-05-11T00:50:26.712Z,0.00
2018-05-11T00:51:26.709Z,0.00
2018-05-11T00:52:26.707Z,0.00
2018-05-11T00:53:26.707Z,0.00
2018-05-11T00:54:26.703Z,0.00
2018-05-11T00:55:26.701Z,0.00
2018-05-11T00:56:26.698Z,0.00
2018-05-11T00:57:26.698Z,0.00
2018-05-11T00:58:26.696Z,0.00
2018-05-11T00:59:26.694Z,0.00
2018-05-11T01:00:26.691Z,0.00
2018-05-11T01:01:26.690Z,0.00
2018-05-11T01:02:26.688Z,0.00
2018-05-11T01:03:26.685Z,0.00
2018-05-11T01:04:26.684Z,0.00
2018-05-11T01:05:26.682Z,0.00
2018-05-11T01:06:26.680Z,0.00
2018-05-11T01:07:26.679Z,0.00
2018-05-11T01:08:26.676Z,0.00
2018-05-11T01:09:26.674Z,0.00
2018-05-11T01:10:26.672Z,0.00
2018-05-11T01:11:26.671Z,0.00
2018-05-11T01:12:26.668Z,0.00
2018-05-11T01:13:26.665Z,0.00
2018-05-11T01:14:26.664Z,0.00
2018-05-11T01:15:26.663Z,0.00
2018-05-11T01:16:26.662Z,0.00
2018-05-11T01:17:26.658Z,0.00
2018-05-11T01:18:26.656Z,0.00
2018-05-11T01:19:26.655Z,0.00
2018-05-11T01:20:26.652Z,0.00
2018-05-11T01:21:26.650Z,0.00
2018-05-11T01:22:26.649Z,0.00
2018-05-11T01:23:26.647Z,0.00
2018-05-11T01:24:26.644Z,0.00
2018-05-11T01:25:26.642Z,0.00
2018-05-11T01:26:26.641Z,0.00
2018-05-11T01:27:26.639Z,0.00
2018-05-11T01:28:26.634Z,0.00
2018-05-11T01:29:26.633Z,0.00
2018-05-11T01:30:26.632Z,0.00
2018-05-11T01:31:26.634Z,0.00
2018-05-11T01:32:26.628Z,0.00
2018-05-11T01:33:26.625Z,0.00
2018-05-11T01:34:26.624Z,0.00
2018-05-11T01:35:26.622Z,0.00
2018-05-11T01:36:26.619Z,0.00
2018-05-11T01:37:26.618Z,0.00
2018-05-11T01:38:26.615Z,0.00
2018-05-11T01:39:26.613Z,0.00
2018-05-11T01:40:26.611Z,0.00
2018-05-11T01:41:26.644Z,0.00
2018-05-11T01:42:26.608Z,0.00
2018-05-11T01:43:26.607Z,0.00
2018-05-11T01:44:26.602Z,0.00
2018-05-11T01:45:26.606Z,0.00
2018-05-11T01:46:26.598Z,0.00
2018-05-11T01:47:26.597Z,0.00
2018-05-11T01:48:26.594Z,0.00
2018-05-11T01:49:26.593Z,0.00
2018-05-11T01:50:26.595Z,0.00
2018-05-11T01:51:26.595Z,0.00
2018-05-11T01:52:26.588Z,0.00
2018-05-11T01:53:26.584Z,0.00
2018-05-11T01:54:26.582Z,0.00
2018-05-11T01:55:26.580Z,0.00
2018-05-11T01:56:26.577Z,0.00
2018-05-11T01:57:26.577Z,0.00
2018-05-11T01:58:26.574Z,0.00
2018-05-11T01:59:26.572Z,0.00
2018-05-11T02:00:26.573Z,0.00
2018-05-11T02:01:26.567Z,0.00
2018-05-11T02:02:26.565Z,0.00
2018-05-11T02:03:26.563Z,0.00
2018-05-11T02:04:26.560Z,0.00
2018-05-11T02:05:26.558Z,0.00
2018-05-11T02:06:26.556Z,0.00
2018-05-11T02:07:26.554Z,0.00
2018-05-11T02:08:26.551Z,0.00
2018-05-11T02:09:26.548Z,0.00
2018-05-11T02:10:26.548Z,0.00
2018-05-11T02:11:26.545Z,0.00
2018-05-11T02:12:26.542Z,0.00
2018-05-11T02:13:26.548Z,0.00
2018-05-11T02:14:26.539Z,0.00
2018-05-11T02:15:26.537Z,0.00
2018-05-11T02:16:26.533Z,0.00
2018-05-11T02:17:26.533Z,0.00
2018-05-11T02:18:26.530Z,0.00
2018-05-11T02:19:26.527Z,0.00
2018-05-11T02:20:26.523Z,0.00
2018-05-11T02:21:26.522Z,0.00
2018-05-11T02:22:26.520Z,0.00
2018-05-11T02:23:26.519Z,0.00
2018-05-11T02:24:26.514Z,0.00
2018-05-11T02:25:26.512Z,0.00
2018-05-11T02:26:26.511Z,0.00
2018-05-11T02:27:26.509Z,0.00
2018-05-11T02:28:26.506Z,0.00
2018-05-11T02:29:26.503Z,0.00
2018-05-11T02:30:26.503Z,0.00
2018-05-11T02:31:26.504Z,0.00
2018-05-11T02:32:26.498Z,0.00
2018-05-11T02:33:26.495Z,0.00
2018-05-11T02:34:26.493Z,0.00
2018-05-11T02:35:26.490Z,0.00
2018-05-11T02:36:26.487Z,0.00
2018-05-11T02:37:26.485Z,0.00
2018-05-11T02:38:26.482Z,0.00
2018-05-11T02:39:26.481Z,0.00
2018-05-11T02:40:26.477Z,0.00
2018-05-11T02:41:26.476Z,0.00
2018-05-11T02:42:26.474Z,0.00
2018-05-11T02:43:26.471Z,0.00
2018-05-11T02:44:26.468Z,0.00
2018-05-11T02:45:26.467Z,0.00
2018-05-11T02:46:26.464Z,0.00
2018-05-11T02:47:26.462Z,0.00
2018-05-11T02:48:26.461Z,0.00
2018-05-11T02:49:26.461Z,0.00
2018-05-11T02:50:26.455Z,0.00
2018-05-11T02:51:26.453Z,0.00
2018-05-11T02:52:26.456Z,0.00
2018-05-11T02:53:26.455Z,0.00
2018-05-11T02:54:26.446Z,0.00
2018-05-11T02:55:26.442Z,0.00
2018-05-11T02:56:26.439Z,0.00
2018-05-11T02:57:26.436Z,0.00
2018-05-11T02:58:26.437Z,0.00
2018-05-11T02:59:26.431Z,0.00
2018-05-11T03:00:26.428Z,0.00
2018-05-11T03:01:26.427Z,0.00
2018-05-11T03:02:26.427Z,0.00
2018-05-11T03:03:26.422Z,0.00
2018-05-11T03:04:26.418Z,0.00
2018-05-11T03:05:26.426Z,0.00
2018-05-11T03:06:26.415Z,0.00
2018-05-11T03:07:26.413Z,0.00
2018-05-11T03:08:26.408Z,4.00
2018-05-11T03:09:26.407Z,4.00
2018-05-11T03:10:26.408Z,4.00
2018-05-11T03:11:26.401Z,0.00
2018-05-11T03:12:26.399Z,4.00
2018-05-11T03:13:26.397Z,4.00
2018-05-11T03:14:26.395Z,8.00
2018-05-11T03:15:26.392Z,4.00
2018-05-11T03:16:26.389Z,8.00
2018-05-11T03:17:26.388Z,8.00
2018-05-11T03:18:26.434Z,8.00
2018-05-11T03:19:26.383Z,8.00
2018-05-11T03:20:26.380Z,8.00
2018-05-11T03:21:26.378Z,12.00
2018-05-11T03:22:26.376Z,16.00
2018-05-11T03:23:26.372Z,20.00
2018-05-11T03:24:26.370Z,20.00
2018-05-11T03:25:26.366Z,24.00
2018-05-11T03:26:26.364Z,28.00
2018-05-11T03:27:26.361Z,32.00
2018-05-11T03:28:26.356Z,36.00
2018-05-11T03:29:26.389Z,40.00
2018-05-11T03:30:26.353Z,44.00
2018-05-11T03:31:26.351Z,48.00
2018-05-11T03:32:26.347Z,52.00
2018-05-11T03:33:26.345Z,52.00
2018-05-11T03:34:26.343Z,60.00
2018-05-11T03:35:26.353Z,60.00
2018-05-11T03:36:26.339Z,64.00
2018-05-11T03:37:26.337Z,72.00
2018-05-11T03:38:26.336Z,68.00
2018-05-11T03:39:26.329Z,76.00
2018-05-11T03:40:26.326Z,80.00
2018-05-11T03:41:26.325Z,96.00
2018-05-11T03:42:26.321Z,96.00
2018-05-11T03:43:26.318Z,104.00
2018-05-11T03:44:26.316Z,104.00
2018-05-11T03:45:26.313Z,120.00
2018-05-11T03:46:26.310Z,120.00
2018-05-11T03:47:26.309Z,132.00
2018-05-11T03:48:26.305Z,144.00
2018-05-11T03:49:26.304Z,168.00
2018-05-11T03:50:26.300Z,172.00
2018-05-11T03:51:26.298Z,192.00
2018-05-11T03:52:26.296Z,200.00
2018-05-11T03:53:26.292Z,220.00
2018-05-11T03:54:26.289Z,220.00
2018-05-11T03:55:26.286Z,216.00
2018-05-11T03:56:26.285Z,216.00
2018-05-11T03:57:26.280Z,248.00
2018-05-11T03:58:26.278Z,252.00
2018-05-11T03:59:26.277Z,272.00
2018-05-11T04:00:26.273Z,292.00
2018-05-11T04:01:26.270Z,284.00
2018-05-11T04:02:26.268Z,288.00
2018-05-11T04:03:26.266Z,308.00
2018-05-11T04:04:26.266Z,320.00
2018-05-11T04:05:26.260Z,328.00
2018-05-11T04:06:26.258Z,340.00
2018-05-11T04:07:26.256Z,344.00
2018-05-11T04:08:26.254Z,332.00
2018-05-11T04:09:26.250Z,340.00
2018-05-11T04:10:26.248Z,364.00
2018-05-11T04:11:26.250Z,404.00
2018-05-11T04:12:26.243Z,432.00
2018-05-11T04:13:26.241Z,424.00
2018-05-11T04:14:26.239Z,424.00
2018-05-11T04:15:26.237Z,468.00
2018-05-11T04:16:26.236Z,508.00
2018-05-11T04:17:26.231Z,520.00
2018-05-11T04:18:26.245Z,540.00
2018-05-11T04:19:26.228Z,548.00
2018-05-11T04:20:26.228Z,548.00
2018-05-11T04:21:26.222Z,596.00
2018-05-11T04:22:26.222Z,672.00
2018-05-11T04:23:26.220Z,700.00
2018-05-11T04:24:26.216Z,744.00
2018-05-11T04:25:26.216Z,848.00
2018-05-11T04:26:26.213Z,924.00
2018-05-11T04:27:26.211Z,960.00
2018-05-11T04:28:26.211Z,1068.00
2018-05-11T04:29:26.206Z,1156.00
2018-05-11T04:30:26.205Z,1172.00
2018-05-11T04:31:26.203Z,1300.00
2018-05-11T04:32:26.200Z,1264.00
2018-05-11T04:33:26.198Z,1308.00
2018-05-11T04:34:26.196Z,1412.00
2018-05-11T04:35:26.196Z,1580.00
2018-05-11T04:36:26.192Z,1796.00
2018-05-11T04:37:26.190Z,1856.00
2018-05-11T04:38:26.188Z,1664.00
2018-05-11T04:39:26.191Z,1720.00
2018-05-11T04:40:26.183Z,1796.00
2018-05-11T04:41:26.181Z,1808.00
2018-05-11T04:42:26.186Z,1912.00
2018-05-11T04:43:26.178Z,1952.00
2018-05-11T04:44:26.175Z,1956.00
2018-05-11T04:45:26.174Z,1940.00
2018-05-11T04:46:26.173Z,1900.00
2018-05-11T04:47:26.170Z,1860.00
2018-05-11T04:48:26.167Z,1848.00
2018-05-11T04:49:26.166Z,1840.00
2018-05-11T04:50:26.164Z,1844.00
2018-05-11T04:51:26.168Z,1880.00
2018-05-11T04:52:26.162Z,1940.00
2018-05-11T04:53:26.159Z,2004.00
2018-05-11T04:54:26.158Z,2080.00
2018-05-11T04:55:26.156Z,2132.00
2018-05-11T04:56:26.154Z,2072.00
2018-05-11T04:57:26.152Z,2016.00
2018-05-11T04:58:26.152Z,1976.00
2018-05-11T04:59:26.150Z,1968.00
2018-05-11T05:00:26.147Z,1988.00
2018-05-11T05:01:26.146Z,2004.00
2018-05-11T05:02:26.144Z,2056.00
2018-05-11T05:03:26.144Z,2172.00
2018-05-11T05:04:26.143Z,2284.00
2018-05-11T05:05:26.140Z,2324.00
2018-05-11T05:06:26.144Z,2348.00
2018-05-11T05:07:26.136Z,2424.00
2018-05-11T05:08:26.135Z,2444.00
2018-05-11T05:09:26.133Z,2288.00
2018-05-11T05:10:26.132Z,2292.00
2018-05-11T05:11:26.130Z,2204.00
2018-05-11T05:12:26.173Z,2048.00
2018-05-11T05:13:26.131Z,2056.00
2018-05-11T05:14:26.127Z,2108.00
2018-05-11T05:15:26.125Z,2124.00
2018-05-11T05:16:26.123Z,2168.00
2018-05-11T05:17:26.125Z,2172.00
2018-05-11T05:18:26.126Z,2356.00
2018-05-11T05:19:26.120Z,2612.00
2018-05-11T05:20:26.120Z,2664.00
2018-05-11T05:21:26.117Z,2712.00
2018-05-11T05:22:26.116Z,2844.00
2018-05-11T05:23:26.115Z,2856.00
2018-05-11T05:24:26.113Z,2804.00
2018-05-11T05:25:26.112Z,2752.00
2018-05-11T05:26:26.111Z,2716.00
2018-05-11T05:27:26.110Z,2604.00
2018-05-11T05:28:26.109Z,2528.00
2018-05-11T05:29:26.110Z,2476.00
2018-05-11T05:30:26.107Z,2480.00
2018-05-11T05:31:26.106Z,2584.00
2018-05-11T05:32:26.104Z,2720.00
2018-05-11T05:33:26.104Z,2904.00
2018-05-11T05:34:26.103Z,3056.00
2018-05-11T05:35:26.102Z,3052.00
2018-05-11T05:36:26.102Z,3288.00
2018-05-11T05:37:26.100Z,3412.00
2018-05-11T05:38:26.099Z,3524.00
2018-05-11T05:39:26.102Z,3436.00
2018-05-11T05:40:26.097Z,3080.00
2018-05-11T05:41:26.096Z,2964.00
2018-05-11T05:42:26.096Z,2636.00
2018-05-11T05:43:26.095Z,2436.00
2018-05-11T05:44:26.093Z,2556.00
2018-05-11T05:45:26.095Z,3036.00
2018-05-11T05:46:26.093Z,4240.00
2018-05-11T05:47:26.092Z,5676.00
2018-05-11T05:48:26.091Z,7100.00
2018-05-11T05:49:26.093Z,8020.00
2018-05-11T05:50:26.090Z,9968.00
2018-05-11T05:51:26.089Z,10000.00
2018-05-11T05:52:26.088Z,9868.00
2018-05-11T05:53:26.089Z,10316.00
2018-05-11T05:54:26.088Z,10932.00
2018-05-11T05:55:26.087Z,9016.00
2018-05-11T05:56:26.090Z,8872.00
2018-05-11T05:57:26.087Z,9236.00
2018-05-11T05:58:26.119Z,7520.00
2018-05-11T05:59:26.091Z,6600.00
2018-05-11T06:00:26.086Z,6536.00
2018-05-11T06:01:26.087Z,8260.00
2018-05-11T06:02:26.150Z,8348.00
2018-05-11T06:03:26.088Z,8668.00
2018-05-11T06:04:26.088Z,8432.00
2018-05-11T06:05:26.086Z,8396.00
2018-05-11T06:06:26.088Z,8180.00
2018-05-11T06:07:26.088Z,7752.00
2018-05-11T06:08:26.088Z,6400.00
2018-05-11T06:09:26.125Z,6124.00
2018-05-11T06:10:26.088Z,6744.00
2018-05-11T06:11:26.091Z,6656.00
2018-05-11T06:12:26.088Z,6616.00
2018-05-11T06:13:26.090Z,7720.00
2018-05-11T06:14:26.090Z,7520.00
2018-05-11T06:15:26.091Z,8164.00
2018-05-11T06:16:26.092Z,8144.00
2018-05-11T06:17:26.092Z,7828.00
2018-05-11T06:18:26.091Z,6900.00
2018-05-11T06:19:26.093Z,6312.00
2018-05-11T06:20:26.091Z,6532.00
2018-05-11T06:21:26.094Z,7380.00
2018-05-11T06:22:26.093Z,7916.00
2018-05-11T06:23:26.095Z,7372.00
2018-05-11T06:24:26.093Z,6644.00
2018-05-11T06:25:26.095Z,7892.00
2018-05-11T06:26:26.096Z,9588.00
2018-05-11T06:27:26.096Z,10984.00
2018-05-11T06:28:26.100Z,10648.00
2018-05-11T06:29:26.104Z,9764.00
2018-05-11T06:30:26.099Z,10080.00
2018-05-11T06:31:26.099Z,9252.00
2018-05-11T06:32:26.101Z,6884.00
2018-05-11T06:33:26.101Z,5684.00
2018-05-11T06:34:26.221Z,5868.00
2018-05-11T06:35:26.104Z,6548.00
2018-05-11T06:36:26.108Z,7280.00
2018-05-11T06:37:26.110Z,7836.00
2018-05-11T06:38:26.107Z,7020.00
2018-05-11T06:39:26.109Z,6688.00
2018-05-11T06:40:26.148Z,6328.00
2018-05-11T06:41:26.108Z,5340.00
2018-05-11T06:42:26.109Z,4988.00
2018-05-11T06:43:26.114Z,5300.00
2018-05-11T06:44:26.112Z,5608.00
2018-05-11T06:45:26.114Z,5356.00
2018-05-11T06:46:26.113Z,4640.00
2018-05-11T06:47:26.113Z,4108.00
2018-05-11T06:48:26.113Z,3928.00
2018-05-11T06:49:26.120Z,3752.00
2018-05-11T06:50:26.118Z,3912.00
2018-05-11T06:51:26.117Z,4312.00
2018-05-11T06:52:26.117Z,4296.00
2018-05-11T06:53:26.118Z,3980.00
2018-05-11T06:54:26.119Z,3648.00
2018-05-11T06:55:26.120Z,3348.00
2018-05-11T06:56:26.120Z,2900.00
2018-05-11T06:57:26.122Z,2672.00
2018-05-11T06:58:26.122Z,2748.00
2018-05-11T06:59:26.124Z,2976.00
2018-05-11T07:00:26.124Z,3332.00
2018-05-11T07:01:26.194Z,4036.00
2018-05-11T07:02:26.126Z,5140.00
2018-05-11T07:03:26.126Z,6332.00
2018-05-11T07:04:26.129Z,6668.00
2018-05-11T07:05:26.134Z,6512.00
2018-05-11T07:06:26.132Z,6520.00
2018-05-11T07:07:26.196Z,6808.00
2018-05-11T07:08:26.131Z,6780.00
2018-05-11T07:09:26.139Z,6732.00
2018-05-11T07:10:26.135Z,7156.00
2018-05-11T07:11:26.134Z,8336.00
2018-05-11T07:12:26.139Z,10624.00
2018-05-11T07:13:26.138Z,11116.00
2018-05-11T07:14:26.148Z,9932.00
2018-05-11T07:15:26.144Z,8960.00
2018-05-11T07:16:26.140Z,8772.00
2018-05-11T07:17:26.143Z,8948.00
2018-05-11T07:18:26.232Z,9372.00
2018-05-11T07:19:26.166Z,10148.00
2018-05-11T07:20:26.146Z,10896.00
2018-05-11T07:21:26.151Z,11032.00
2018-05-11T07:22:26.151Z,10192.00
2018-05-11T07:23:26.152Z,11840.00
2018-05-11T07:24:26.155Z,14344.00
2018-05-11T07:25:26.159Z,17536.00
2018-05-11T07:26:26.157Z,17856.00
2018-05-11T07:27:26.159Z,19328.00
2018-05-11T07:28:26.160Z,20032.00
2018-05-11T07:29:26.167Z,19136.00
2018-05-11T07:30:26.166Z,16928.00
2018-05-11T07:31:26.169Z,16068.00
2018-05-11T07:32:26.175Z,17824.00
2018-05-11T07:33:26.175Z,19456.00
2018-05-11T07:34:26.179Z,21312.00
2018-05-11T07:35:26.183Z,21760.00
2018-05-11T07:36:26.185Z,20576.00
2018-05-11T07:37:26.184Z,19360.00
2018-05-11T07:38:26.190Z,18240.00
2018-05-11T07:39:26.191Z,19648.00
2018-05-11T07:40:26.194Z,18944.00
2018-05-11T07:41:26.201Z,19328.00
2018-05-11T07:42:26.200Z,18656.00
2018-05-11T07:43:26.245Z,13432.00
2018-05-11T07:44:26.205Z,10400.00
2018-05-11T07:45:26.209Z,9108.00
2018-05-11T07:46:26.213Z,9244.00
2018-05-11T07:47:26.219Z,11248.00
2018-05-11T07:48:26.220Z,13772.00
2018-05-11T07:49:26.223Z,34112.00
2018-05-11T07:50:26.233Z,71392.00
2018-05-11T07:51:26.236Z,86848.00
2018-05-11T07:52:26.234Z,87136.00
2018-05-11T07:53:26.241Z,85536.00
2018-05-11T07:54:26.243Z,84064.00
2018-05-11T07:55:26.248Z,84160.00
2018-05-11T07:56:26.254Z,81888.00
2018-05-11T07:57:26.261Z,85088.00
2018-05-11T07:58:26.266Z,84544.00
2018-05-11T07:59:26.272Z,82624.00
2018-05-11T08:00:26.281Z,84768.00
2018-05-11T08:01:26.288Z,88736.00
2018-05-11T08:02:26.297Z,88800.00
2018-05-11T08:03:26.304Z,86944.00
2018-05-11T08:04:26.314Z,86784.00
2018-05-11T08:05:26.322Z,82752.00
2018-05-11T08:06:26.332Z,85440.00
2018-05-11T08:07:26.343Z,89184.00
2018-05-11T08:08:26.357Z,21344.00
2018-05-11T08:09:26.363Z,14164.00
2018-05-11T08:10:26.374Z,40768.00
2018-05-11T08:11:26.388Z,80928.00
2018-05-11T08:12:26.397Z,86336.00
2018-05-11T08:13:26.407Z,83648.00
2018-05-11T08:14:26.586Z,78656.00
2018-05-11T08:15:26.429Z,16548.00
2018-05-11T08:16:26.440Z,14068.00
2018-05-11T08:17:26.452Z,12248.00
2018-05-11T08:18:26.466Z,11340.00
2018-05-11T08:19:26.477Z,10816.00
2018-05-11T08:20:26.485Z,10396.00
2018-05-11T08:21:26.539Z,11212.00
2018-05-11T08:22:26.508Z,12580.00
2018-05-11T08:23:26.518Z,13984.00
2018-05-11T08:24:26.528Z,17792.00
2018-05-11T08:25:26.538Z,19744.00
2018-05-11T08:26:26.548Z,17184.00
2018-05-11T08:27:26.559Z,16020.00
2018-05-11T08:28:26.569Z,17312.00
2018-05-11T08:29:26.577Z,26368.00
2018-05-11T08:30:26.587Z,54112.00
2018-05-11T08:31:26.598Z,29632.00
2018-05-11T08:32:26.604Z,26272.00
2018-05-11T08:33:26.617Z,32288.00
2018-05-11T08:34:26.624Z,13616.00
2018-05-11T08:35:26.632Z,12496.00
2018-05-11T08:36:26.640Z,13100.00
2018-05-11T08:37:26.649Z,14824.00
2018-05-11T08:38:26.659Z,16736.00
2018-05-11T08:39:26.667Z,24928.00
2018-05-11T08:40:26.676Z,18656.00
2018-05-11T08:41:26.690Z,15068.00
2018-05-11T08:42:26.692Z,11472.00
2018-05-11T08:43:26.700Z,9000.00
2018-05-11T08:44:26.707Z,8596.00
2018-05-11T08:45:26.715Z,9036.00
2018-05-11T08:46:26.741Z,9248.00
2018-05-11T08:47:26.734Z,10208.00
2018-05-11T08:48:26.738Z,11144.00
2018-05-11T08:49:26.747Z,11772.00
2018-05-11T08:50:26.754Z,12992.00
2018-05-11T08:51:26.759Z,13572.00
2018-05-11T08:52:26.768Z,15620.00
2018-05-11T08:53:26.774Z,20480.00
2018-05-11T08:54:26.781Z,29504.00
2018-05-11T08:55:26.788Z,35008.00
2018-05-11T08:56:26.796Z,62432.00
2018-05-11T08:57:26.801Z,71008.00
2018-05-11T08:58:26.808Z,83616.00
2018-05-11T08:59:26.819Z,45120.00
2018-05-11T09:00:26.821Z,62560.00
2018-05-11T09:01:26.829Z,15652.00
2018-05-11T09:02:26.838Z,15084.00
2018-05-11T09:03:26.845Z,10176.00
2018-05-11T09:04:26.852Z,8716.00
2018-05-11T09:05:26.865Z,7804.00
2018-05-11T09:06:26.868Z,7232.00
2018-05-11T09:07:26.877Z,7272.00
2018-05-11T09:08:26.889Z,7888.00
2018-05-11T09:09:26.892Z,8532.00
2018-05-11T09:10:26.899Z,8996.00
2018-05-11T09:11:26.908Z,9312.00
2018-05-11T09:12:26.914Z,9208.00
2018-05-11T09:13:26.921Z,8916.00
2018-05-11T09:14:26.931Z,9212.00
2018-05-11T09:15:26.936Z,9460.00
2018-05-11T09:16:26.944Z,9428.00
2018-05-11T09:17:26.951Z,9208.00
2018-05-11T09:18:26.957Z,9112.00
2018-05-11T09:19:26.962Z,9504.00
2018-05-11T09:20:26.969Z,10168.00
2018-05-11T09:21:27.064Z,10784.00
2018-05-11T09:22:26.982Z,11456.00
2018-05-11T09:23:26.988Z,11700.00
2018-05-11T09:24:26.994Z,11432.00
2018-05-11T09:25:27.001Z,11248.00
2018-05-11T09:26:27.007Z,11336.00
2018-05-11T09:27:27.014Z,11844.00
2018-05-11T09:28:27.020Z,12412.00
2018-05-11T09:29:27.027Z,12500.00
2018-05-11T09:30:27.032Z,12844.00
2018-05-11T09:31:27.037Z,13344.00
2018-05-11T09:32:27.043Z,13896.00
2018-05-11T09:33:27.050Z,13960.00
2018-05-11T09:34:27.055Z,13556.00
2018-05-11T09:35:27.062Z,13096.00
2018-05-11T09:36:27.066Z,12892.00
2018-05-11T09:37:27.073Z,12860.00
2018-05-11T09:38:27.079Z,13256.00
2018-05-11T09:39:27.096Z,13448.00
2018-05-11T09:40:27.090Z,14784.00
2018-05-11T09:41:27.096Z,13196.00
2018-05-11T09:42:27.102Z,11724.00
2018-05-11T09:43:27.108Z,12188.00
2018-05-11T09:44:27.113Z,12524.00
2018-05-11T09:45:27.124Z,14120.00
2018-05-11T09:46:27.125Z,16704.00
2018-05-11T09:47:27.130Z,20480.00
2018-05-11T09:48:27.136Z,18432.00
2018-05-11T09:49:27.188Z,20576.00
2018-05-11T09:50:27.148Z,20608.00
2018-05-11T09:51:27.158Z,36224.00
2018-05-11T09:52:27.160Z,15472.00
2018-05-11T09:53:27.166Z,15304.00
2018-05-11T09:54:27.181Z,18592.00
2018-05-11T09:55:27.179Z,12928.00
2018-05-11T09:56:27.184Z,11688.00
2018-05-11T09:57:27.195Z,12980.00
2018-05-11T09:58:27.196Z,15244.00
2018-05-11T09:59:27.217Z,18720.00
2018-05-11T10:00:27.209Z,37696.00
2018-05-11T10:01:27.216Z,38080.00
2018-05-11T10:02:27.222Z,37440.00
2018-05-11T10:03:27.229Z,16800.00
2018-05-11T10:04:27.238Z,17088.00
2018-05-11T10:05:27.244Z,32000.00
2018-05-11T10:06:27.250Z,31392.00
2018-05-11T10:07:27.257Z,17696.00
2018-05-11T10:08:27.263Z,15516.00
2018-05-11T10:09:27.274Z,15332.00
2018-05-11T10:10:27.280Z,24960.00
2018-05-11T10:11:27.287Z,31136.00
2018-05-11T10:12:27.296Z,24832.00
2018-05-11T10:13:27.304Z,17600.00
2018-05-11T10:14:27.320Z,15996.00
2018-05-11T10:15:27.321Z,17056.00
2018-05-11T10:16:27.328Z,15752.00
2018-05-11T10:17:27.337Z,14464.00
2018-05-11T10:18:27.346Z,27872.00
2018-05-11T10:19:27.355Z,18656.00
2018-05-11T10:20:27.363Z,16832.00
2018-05-11T10:21:27.376Z,30880.00
2018-05-11T10:22:27.382Z,30304.00
2018-05-11T10:23:27.391Z,17120.00
2018-05-11T10:24:27.398Z,17184.00
2018-05-11T10:25:27.407Z,25664.00
2018-05-11T10:26:27.417Z,22112.00
2018-05-11T10:27:27.427Z,29184.00
2018-05-11T10:28:27.436Z,12520.00
2018-05-11T10:29:27.446Z,12776.00
2018-05-11T10:30:27.456Z,16480.00
2018-05-11T10:31:27.466Z,12736.00
2018-05-11T10:32:27.475Z,20992.00
2018-05-11T10:33:27.489Z,34400.00
2018-05-11T10:34:27.675Z,41856.00
2018-05-11T10:35:27.504Z,50880.00
2018-05-11T10:36:27.513Z,55104.00
2018-05-11T10:37:27.523Z,57696.00
2018-05-11T10:38:27.534Z,58848.00
2018-05-11T10:39:27.544Z,19232.00
2018-05-11T10:40:27.554Z,20992.00
2018-05-11T10:41:27.564Z,43904.00
2018-05-11T10:42:27.575Z,33056.00
2018-05-11T10:43:27.591Z,31232.00
2018-05-11T10:44:27.594Z,29856.00
2018-05-11T10:45:27.605Z,26976.00
2018-05-11T10:46:27.616Z,25440.00
2018-05-11T10:47:27.627Z,22464.00
2018-05-11T10:48:27.734Z,20512.00
2018-05-11T10:49:27.647Z,19008.00
2018-05-11T10:50:27.659Z,17568.00
2018-05-11T10:51:27.669Z,16156.00
2018-05-11T10:52:27.679Z,15380.00
2018-05-11T10:53:27.691Z,14736.00
2018-05-11T10:54:27.701Z,14572.00
2018-05-11T10:55:27.713Z,14588.00
2018-05-11T10:56:27.722Z,14664.00
2018-05-11T10:57:27.733Z,14504.00
2018-05-11T10:58:27.744Z,11896.00
2018-05-11T10:59:27.756Z,14128.00
2018-05-11T11:00:27.767Z,14320.00
2018-05-11T11:01:27.779Z,13800.00
2018-05-11T11:02:27.855Z,13512.00
2018-05-11T11:03:27.800Z,13008.00
2018-05-11T11:04:27.811Z,13124.00
2018-05-11T11:05:27.824Z,13068.00
2018-05-11T11:06:27.835Z,13204.00
2018-05-11T11:07:27.845Z,13312.00
2018-05-11T11:08:27.855Z,13288.00
2018-05-11T11:09:27.868Z,14112.00
2018-05-11T11:10:27.878Z,13720.00
2018-05-11T11:11:27.889Z,11628.00
2018-05-11T11:12:27.901Z,11124.00
2018-05-11T11:13:27.914Z,10624.00
2018-05-11T11:14:27.921Z,11228.00
2018-05-11T11:15:27.932Z,10984.00
2018-05-11T11:16:27.941Z,10916.00
2018-05-11T11:17:27.952Z,10292.00
2018-05-11T11:18:27.963Z,9856.00
2018-05-11T11:19:27.974Z,9328.00
2018-05-11T11:20:27.984Z,9204.00
2018-05-11T11:21:27.993Z,9248.00
2018-05-11T11:22:28.003Z,8896.00
2018-05-11T11:23:28.013Z,8808.00
2018-05-11T11:24:28.021Z,8608.00
2018-05-11T11:25:28.032Z,8476.00
2018-05-11T11:26:28.040Z,8224.00
2018-05-11T11:27:28.050Z,8344.00
2018-05-11T11:28:28.058Z,8292.00
2018-05-11T11:29:28.066Z,7852.00
2018-05-11T11:30:28.075Z,7812.00
2018-05-11T11:31:28.082Z,7532.00
2018-05-11T11:32:28.091Z,7604.00
2018-05-11T11:33:28.113Z,7752.00
2018-05-11T11:34:28.144Z,7724.00
2018-05-11T11:35:28.117Z,7992.00
2018-05-11T11:36:28.124Z,7944.00
2018-05-11T11:37:28.130Z,6660.00
2018-05-11T11:38:28.138Z,7016.00
2018-05-11T11:39:28.145Z,7240.00
2018-05-11T11:40:28.152Z,7212.00
2018-05-11T11:41:28.167Z,6980.00
2018-05-11T11:42:28.167Z,6964.00
2018-05-11T11:43:28.174Z,6892.00
2018-05-11T11:44:28.181Z,6924.00
2018-05-11T11:45:28.188Z,6940.00
2018-05-11T11:46:28.195Z,6780.00
2018-05-11T11:47:28.242Z,6844.00
2018-05-11T11:48:28.208Z,7020.00
2018-05-11T11:49:28.213Z,6984.00
2018-05-11T11:50:28.221Z,6876.00
2018-05-11T11:51:28.231Z,6640.00
2018-05-11T11:52:28.233Z,6180.00
2018-05-11T11:53:28.240Z,6472.00
2018-05-11T11:54:28.246Z,6328.00
2018-05-11T11:55:28.253Z,5928.00
2018-05-11T11:56:28.343Z,6288.00
2018-05-11T11:57:28.264Z,6316.00
2018-05-11T11:58:28.271Z,6316.00
2018-05-11T11:59:28.277Z,6404.00
2018-05-11T12:00:28.283Z,6356.00
2018-05-11T12:01:28.287Z,6308.00
2018-05-11T12:02:28.295Z,6292.00
2018-05-11T12:03:28.302Z,6212.00
2018-05-11T12:04:28.304Z,6220.00
2018-05-11T12:05:28.311Z,6140.00
2018-05-11T12:06:28.317Z,6136.00
2018-05-11T12:07:28.354Z,6340.00
2018-05-11T12:08:28.327Z,6476.00
2018-05-11T12:09:28.334Z,6508.00
2018-05-11T12:10:28.339Z,6420.00
2018-05-11T12:11:28.347Z,6416.00
2018-05-11T12:12:28.352Z,6092.00
2018-05-11T12:13:28.356Z,5952.00
2018-05-11T12:14:28.365Z,5836.00
2018-05-11T12:15:28.368Z,5836.00
2018-05-11T12:16:28.373Z,5892.00
2018-05-11T12:17:28.379Z,5876.00
2018-05-11T12:18:28.383Z,5852.00
2018-05-11T12:19:28.390Z,5768.00